createdAt,value
2022-11-17T00:02:13.087Z,6.52
2022-11-17T00:04:39.674Z,6.57
2022-11-17T00:07:06.120Z,6.60
2022-11-17T00:09:32.565Z,6.60
2022-11-17T00:12:22.360Z,6.65
2022-11-17T00:14:49.207Z,6.62
2022-11-17T00:17:15.570Z,6.57
2022-11-17T00:20:00.580Z,6.70
2022-11-17T00:22:31.129Z,6.63
2022-11-17T00:24:57.656Z,6.49
2022-11-17T00:27:24.066Z,6.66
2022-11-17T00:29:50.597Z,6.61
2022-11-17T00:32:37.399Z,6.74
2022-11-17T00:35:05.197Z,6.75
2022-11-17T00:37:35.848Z,6.73
2022-11-17T00:40:02.250Z,6.87
2022-11-17T00:42:28.628Z,6.88
2022-11-17T00:44:54.988Z,6.93
2022-11-17T00:47:21.517Z,6.93
2022-11-17T00:49:48.166Z,6.84
2022-11-17T00:52:14.595Z,6.90
2022-11-17T00:54:40.985Z,6.94
2022-11-17T00:57:07.368Z,6.92
2022-11-17T00:59:33.780Z,6.89
2022-11-17T01:02:00.354Z,6.90
2022-11-17T01:04:26.797Z,6.88
2022-11-17T01:06:53.319Z,6.70
2022-11-17T01:09:22.285Z,6.81
2022-11-17T01:11:50.815Z,6.85
2022-11-17T01:14:26.315Z,6.82
2022-11-17T01:16:53.545Z,6.85
2022-11-17T01:19:20.663Z,6.74
2022-11-17T01:21:47.372Z,6.83
2022-11-17T01:24:16.099Z,6.75
2022-11-17T01:26:44.067Z,6.76
2022-11-17T01:29:12.884Z,6.67
2022-11-17T01:31:43.334Z,6.68
2022-11-17T01:34:10.542Z,6.65
2022-11-17T01:36:57.984Z,6.70
2022-11-17T01:39:25.906Z,6.67
2022-11-17T01:41:53.112Z,6.59
2022-11-17T01:44:53.052Z,6.58
2022-11-17T01:47:28.556Z,6.60
2022-11-17T01:50:01.097Z,6.65
2022-11-17T01:52:29.539Z,6.68
2022-11-17T01:54:58.999Z,6.38
2022-11-17T01:57:32.979Z,6.49
2022-11-17T02:00:04.241Z,6.66
2022-11-17T02:02:31.272Z,6.61
2022-11-17T02:05:33.533Z,6.61
2022-11-17T02:08:02.248Z,6.63
2022-11-17T02:10:30.950Z,6.60
2022-11-17T02:12:58.799Z,6.53
2022-11-17T02:15:26.669Z,6.60
2022-11-17T02:17:54.184Z,6.54
2022-11-17T02:20:30.705Z,6.64
2022-11-17T02:23:24.642Z,6.72
2022-11-17T02:26:27.268Z,6.75
2022-11-17T02:29:08.011Z,6.72
2022-11-17T02:32:02.819Z,6.69
2022-11-17T02:34:47.387Z,6.72
2022-11-17T02:37:52.142Z,6.83
2022-11-17T02:40:27.709Z,6.76
2022-11-17T02:43:18.963Z,6.68
2022-11-17T02:45:52.057Z,6.73
2022-11-17T02:48:26.789Z,6.70
2022-11-17T02:50:55.018Z,6.69
2022-11-17T02:53:24.170Z,6.78
2022-11-17T02:55:53.278Z,6.72
2022-11-17T02:58:20.426Z,6.74
2022-11-17T03:01:18.660Z,6.58
2022-11-17T03:03:57.697Z,6.73
2022-11-17T03:06:41.422Z,6.81
2022-11-17T03:09:29.717Z,6.80
2022-11-17T03:12:16.317Z,6.74
2022-11-17T03:15:07.176Z,6.64
2022-11-17T03:17:56.797Z,6.71
2022-11-17T03:20:29.339Z,6.71
2022-11-17T03:23:11.610Z,6.68
2022-11-17T03:25:45.477Z,6.75
2022-11-17T03:28:13.660Z,6.67
2022-11-17T03:30:42.863Z,6.61
2022-11-17T03:33:15.403Z,6.80
2022-11-17T03:35:50.777Z,6.83
2022-11-17T03:38:20.607Z,6.82
2022-11-17T03:40:50.919Z,6.77
2022-11-17T03:43:20.234Z,6.77
2022-11-17T03:45:53.941Z,6.83
2022-11-17T03:48:28.560Z,6.83
2022-11-17T03:51:12.604Z,6.86
2022-11-17T03:53:39.168Z,6.89
2022-11-17T03:56:27.677Z,6.93
2022-11-17T03:59:01.564Z,6.85
2022-11-17T04:01:30.458Z,6.94
2022-11-17T04:03:57.016Z,6.86
2022-11-17T04:06:23.485Z,6.86
2022-11-17T04:08:49.880Z,6.90
2022-11-17T04:11:35.063Z,6.91
2022-11-17T04:14:19.794Z,6.90
2022-11-17T04:16:46.374Z,6.89
2022-11-17T04:19:13.064Z,6.95
2022-11-17T04:21:39.457Z,6.84
2022-11-17T04:24:06.479Z,6.96
2022-11-17T04:26:51.324Z,6.96
2022-11-17T04:29:17.734Z,6.98
2022-11-17T04:31:44.148Z,6.95
2022-11-17T04:34:10.547Z,6.87
2022-11-17T04:36:43.284Z,6.95
2022-11-17T04:39:10.710Z,6.99
2022-11-17T04:41:57.100Z,6.95
2022-11-17T04:44:28.865Z,6.92
2022-11-17T04:47:06.064Z,6.91
2022-11-17T04:49:33.313Z,6.91
2022-11-17T04:52:00.492Z,6.89
2022-11-17T04:54:27.659Z,6.95
2022-11-17T04:56:55.055Z,6.87
2022-11-17T04:59:21.604Z,6.58
2022-11-17T05:01:51.782Z,6.79
2022-11-17T05:04:45.422Z,6.86
2022-11-17T05:07:15.795Z,6.85
2022-11-17T05:09:44.602Z,6.87
2022-11-17T05:12:29.669Z,6.82
2022-11-17T05:14:56.849Z,6.73
2022-11-17T05:17:23.308Z,6.79
2022-11-17T05:19:49.746Z,6.70
2022-11-17T05:22:38.029Z,6.85
2022-11-17T05:25:05.627Z,6.84
2022-11-17T05:27:33.894Z,6.75
2022-11-17T05:30:01.329Z,6.78
2022-11-17T05:32:27.740Z,6.85
2022-11-17T05:34:54.152Z,6.74
2022-11-17T05:37:24.824Z,6.56
2022-11-17T05:39:51.205Z,6.83
2022-11-17T05:42:17.615Z,6.77
2022-11-17T05:44:44.044Z,6.72
2022-11-17T05:47:10.434Z,6.73
2022-11-17T05:49:36.907Z,6.76
2022-11-17T05:52:03.357Z,6.73
2022-11-17T05:54:29.814Z,6.69
2022-11-17T05:57:02.975Z,6.73
2022-11-17T05:59:55.158Z,6.69
2022-11-17T06:02:29.450Z,6.71
2022-11-17T06:04:55.827Z,6.71
2022-11-17T06:07:22.464Z,6.72
2022-11-17T06:09:50.842Z,6.67
2022-11-17T06:12:17.288Z,6.74
2022-11-17T06:14:43.838Z,6.73
2022-11-17T06:17:22.744Z,6.77
2022-11-17T06:19:55.729Z,6.81
2022-11-17T06:22:22.517Z,6.78
2022-11-17T06:24:49.016Z,6.69
2022-11-17T06:27:16.823Z,6.65
2022-11-17T06:29:45.080Z,6.81
2022-11-17T06:32:16.162Z,6.72
2022-11-17T06:34:47.985Z,6.77
2022-11-17T06:37:16.987Z,6.73
2022-11-17T06:39:43.425Z,6.77
2022-11-17T06:42:09.817Z,6.79
2022-11-17T06:44:36.318Z,6.78
2022-11-17T06:47:02.687Z,6.75
2022-11-17T06:49:29.391Z,6.76
2022-11-17T06:51:55.788Z,6.62
2022-11-17T06:54:22.213Z,6.77
2022-11-17T06:56:49.719Z,6.85
2022-11-17T06:59:16.157Z,6.88
2022-11-17T07:01:43.358Z,6.92
2022-11-17T07:04:09.988Z,6.92
2022-11-17T07:06:37.264Z,6.92
2022-11-17T07:09:04.958Z,6.89
2022-11-17T07:11:34.802Z,6.96
2022-11-17T07:14:01.191Z,6.89
2022-11-17T07:16:29.160Z,6.95
2022-11-17T07:18:55.682Z,6.98
2022-11-17T07:21:22.462Z,6.97
2022-11-17T07:23:48.841Z,6.92
2022-11-17T07:26:15.215Z,6.83
2022-11-17T07:28:41.603Z,7.00
2022-11-17T07:31:09.238Z,7.03
2022-11-17T07:33:36.800Z,6.94
2022-11-17T07:36:09.628Z,6.94
2022-11-17T07:38:38.005Z,6.98
2022-11-17T07:41:05.387Z,6.99
2022-11-17T07:43:34.278Z,6.95
2022-11-17T07:46:08.573Z,7.04
2022-11-17T07:48:36.135Z,6.99
2022-11-17T07:51:04.720Z,7.01
2022-11-17T07:53:33.480Z,7.00
2022-11-17T07:56:05.003Z,7.01
2022-11-17T07:58:32.354Z,7.03
2022-11-17T08:00:58.902Z,7.06
2022-11-17T08:03:25.425Z,7.03
2022-11-17T08:05:53.325Z,7.07
2022-11-17T08:08:19.746Z,7.06
2022-11-17T08:10:46.189Z,7.07
2022-11-17T08:13:14.093Z,7.13
2022-11-17T08:15:40.477Z,7.10
2022-11-17T08:18:06.920Z,7.16
2022-11-17T08:20:33.801Z,7.21
2022-11-17T08:23:00.201Z,7.19
2022-11-17T08:25:27.398Z,7.22
2022-11-17T08:27:57.974Z,7.16
2022-11-17T08:30:26.013Z,7.32
2022-11-17T08:32:54.406Z,7.33
2022-11-17T08:35:23.175Z,7.35
2022-11-17T08:37:49.670Z,7.30
2022-11-17T08:40:18.014Z,7.30
2022-11-17T08:42:44.687Z,7.25
2022-11-17T08:45:11.769Z,7.42
2022-11-17T08:47:38.446Z,7.38
2022-11-17T08:50:06.913Z,7.48
2022-11-17T08:52:33.355Z,7.40
2022-11-17T08:54:59.916Z,7.54
2022-11-17T08:57:26.471Z,7.48
2022-11-17T08:59:52.873Z,7.53
2022-11-17T09:02:19.383Z,7.50
2022-11-17T09:04:46.555Z,7.46
2022-11-17T09:07:13.267Z,7.50
2022-11-17T09:09:39.819Z,7.54
2022-11-17T09:12:06.329Z,7.62
2022-11-17T09:14:32.968Z,7.60
2022-11-17T09:16:59.411Z,7.62
2022-11-17T09:19:25.885Z,7.64
2022-11-17T09:21:52.253Z,7.72
2022-11-17T09:24:18.694Z,7.74
2022-11-17T09:26:45.090Z,7.78
2022-11-17T09:29:11.656Z,7.92
2022-11-17T09:31:38.348Z,7.90
2022-11-17T09:34:05.825Z,8.05
2022-11-17T09:36:33.333Z,7.90
2022-11-17T09:38:59.818Z,8.09
2022-11-17T09:41:41.744Z,8.24
2022-11-17T09:44:29.399Z,8.54
2022-11-17T09:47:07.039Z,8.73
2022-11-17T09:49:45.662Z,9.23
2022-11-17T09:52:27.619Z,9.43
2022-11-17T09:55:00.712Z,10.17
2022-11-17T09:57:45.499Z,11.00
2022-11-17T10:00:22.773Z,11.01
2022-11-17T10:02:51.520Z,10.46
2022-11-17T10:05:34.013Z,10.57
2022-11-17T10:08:06.653Z,10.38
2022-11-17T10:10:46.854Z,10.10
2022-11-17T10:13:27.990Z,10.08
2022-11-17T10:16:00.372Z,10.06
2022-11-17T10:18:28.024Z,10.19
2022-11-17T10:20:54.406Z,10.31
2022-11-17T10:23:22.018Z,10.25
2022-11-17T10:25:56.385Z,10.37
2022-11-17T10:28:33.008Z,10.41
2022-11-17T10:31:01.367Z,10.25
2022-11-17T10:33:35.322Z,10.14
2022-11-17T10:36:02.914Z,9.96
2022-11-17T10:38:30.749Z,9.95
2022-11-17T10:41:00.429Z,9.76
2022-11-17T10:43:33.803Z,9.73
2022-11-17T10:46:14.465Z,9.73
2022-11-17T10:49:00.947Z,9.44
2022-11-17T10:51:34.366Z,9.42
2022-11-17T10:54:06.475Z,9.41
2022-11-17T10:56:40.120Z,9.40
2022-11-17T10:59:06.573Z,9.45
2022-11-17T11:01:41.847Z,9.47
2022-11-17T11:04:28.158Z,9.44
2022-11-17T11:07:14.258Z,9.57
2022-11-17T11:09:55.968Z,9.59
2022-11-17T11:12:34.906Z,9.36
2022-11-17T11:15:03.157Z,9.40
2022-11-17T11:17:29.878Z,9.17
2022-11-17T11:19:56.748Z,9.30
2022-11-17T11:22:33.091Z,9.33
2022-11-17T11:25:36.225Z,9.24
2022-11-17T11:28:20.197Z,9.08
2022-11-17T11:31:06.735Z,9.25
2022-11-17T11:33:41.426Z,9.21
2022-11-17T11:36:29.762Z,9.24
2022-11-17T11:39:16.451Z,9.23
2022-11-17T11:42:07.965Z,9.18
2022-11-17T11:44:48.441Z,9.27
2022-11-17T11:47:36.845Z,9.25
2022-11-17T11:50:06.302Z,9.18
2022-11-17T11:52:38.061Z,9.18
2022-11-17T11:55:31.974Z,9.21
2022-11-17T11:58:13.908Z,9.22
2022-11-17T12:00:42.794Z,9.23
2022-11-17T12:03:33.711Z,9.25
2022-11-17T12:06:25.041Z,9.46
2022-11-17T12:09:08.670Z,9.28
2022-11-17T12:11:57.913Z,9.49
2022-11-17T12:14:24.659Z,9.59
2022-11-17T12:17:01.581Z,9.65
2022-11-17T12:19:59.687Z,9.78
2022-11-17T12:22:28.806Z,9.77
2022-11-17T12:24:57.663Z,9.84
2022-11-17T12:27:33.305Z,9.93
2022-11-17T12:30:00.660Z,9.93
2022-11-17T12:32:44.937Z,9.90
2022-11-17T12:35:39.054Z,9.86
2022-11-17T12:38:31.230Z,9.87
2022-11-17T12:40:57.599Z,9.89
2022-11-17T12:43:26.080Z,9.91
2022-11-17T12:45:52.373Z,9.84
2022-11-17T12:48:33.804Z,9.80
2022-11-17T12:51:21.778Z,9.78
2022-11-17T12:53:56.150Z,9.74
2022-11-17T12:56:37.321Z,9.78
2022-11-17T12:59:23.836Z,9.65
2022-11-17T13:02:11.528Z,9.73
2022-11-17T13:04:49.414Z,9.66
2022-11-17T13:07:22.107Z,9.68
2022-11-17T13:09:54.330Z,9.60
2022-11-17T13:12:26.386Z,9.58
2022-11-17T13:14:58.603Z,9.51
2022-11-17T13:17:42.745Z,9.49
2022-11-17T13:20:29.780Z,9.50
2022-11-17T13:23:25.784Z,9.49
2022-11-17T13:26:18.399Z,9.39
2022-11-17T13:28:46.038Z,9.31
2022-11-17T13:31:18.429Z,9.29
2022-11-17T13:33:56.694Z,9.32
2022-11-17T13:36:27.105Z,9.26
2022-11-17T13:38:57.290Z,9.44
2022-11-17T13:41:25.728Z,9.37
2022-11-17T13:43:53.739Z,9.32
2022-11-17T13:46:20.775Z,9.30
2022-11-17T13:48:49.783Z,9.38
2022-11-17T13:51:35.053Z,9.39
2022-11-17T13:54:06.869Z,9.40
2022-11-17T13:56:41.204Z,9.43
2022-11-17T13:59:28.514Z,9.38
2022-11-17T14:02:16.697Z,9.35
2022-11-17T14:05:15.119Z,9.32
2022-11-17T14:07:43.493Z,9.30
2022-11-17T14:10:22.340Z,9.26
2022-11-17T14:12:53.883Z,9.23
2022-11-17T14:15:29.278Z,9.27
2022-11-17T14:18:01.023Z,9.29
2022-11-17T14:20:35.349Z,9.29
2022-11-17T14:23:15.877Z,9.32
2022-11-17T14:25:44.878Z,9.32
2022-11-17T14:28:16.169Z,9.40
2022-11-17T14:30:42.902Z,9.42
2022-11-17T14:33:13.630Z,9.35
2022-11-17T14:35:40.910Z,9.48
2022-11-17T14:38:10.421Z,9.53
2022-11-17T14:40:36.817Z,9.54
2022-11-17T14:43:03.217Z,9.62
2022-11-17T14:45:29.840Z,9.53
2022-11-17T14:47:56.529Z,9.46
2022-11-17T14:50:23.066Z,9.68
2022-11-17T14:52:49.435Z,9.64
2022-11-17T14:55:15.883Z,9.52
2022-11-17T14:57:42.337Z,9.50
2022-11-17T15:00:11.025Z,9.48
2022-11-17T15:02:40.507Z,9.39
2022-11-17T15:05:07.415Z,9.41
2022-11-17T15:07:33.902Z,9.36
2022-11-17T15:10:00.473Z,9.50
2022-11-17T15:12:26.947Z,9.32
2022-11-17T15:14:53.645Z,9.47
2022-11-17T15:17:20.140Z,9.48
2022-11-17T15:19:46.558Z,9.43
2022-11-17T15:22:13.164Z,9.42
2022-11-17T15:24:39.739Z,9.33
2022-11-17T15:27:06.247Z,9.40
2022-11-17T15:29:32.925Z,9.45
2022-11-17T15:31:59.371Z,9.46
2022-11-17T15:34:25.859Z,9.31
2022-11-17T15:36:52.385Z,9.35
2022-11-17T15:39:19.255Z,9.40
2022-11-17T15:41:45.767Z,9.40
2022-11-17T15:44:12.176Z,9.36
2022-11-17T15:46:42.918Z,9.22
2022-11-17T15:49:12.407Z,9.29
2022-11-17T15:51:38.810Z,9.31
2022-11-17T15:54:05.302Z,9.36
2022-11-17T15:56:38.572Z,9.33
2022-11-17T15:59:06.366Z,9.27
2022-11-17T16:01:34.598Z,9.36
2022-11-17T16:04:09.207Z,9.41
2022-11-17T16:06:38.352Z,9.29
2022-11-17T16:09:06.573Z,9.30
2022-11-17T16:11:36.579Z,9.22
2022-11-17T16:14:04.013Z,9.17
2022-11-17T16:16:33.254Z,9.17
2022-11-17T16:19:00.033Z,9.23
2022-11-17T16:21:26.575Z,9.23
2022-11-17T16:23:55.811Z,9.16
2022-11-17T16:26:24.286Z,9.02
2022-11-17T16:29:04.198Z,8.92
2022-11-17T16:31:33.048Z,9.00
2022-11-17T16:34:01.294Z,8.96
2022-11-17T16:36:34.573Z,8.97
2022-11-17T16:39:03.114Z,8.80
2022-11-17T16:41:33.031Z,8.86
2022-11-17T16:44:00.473Z,8.65
2022-11-17T16:46:29.828Z,8.64
2022-11-17T16:49:00.325Z,8.60
2022-11-17T16:51:26.832Z,8.54
2022-11-17T16:53:58.759Z,8.43
2022-11-17T16:56:25.628Z,8.46
2022-11-17T16:58:55.883Z,8.41
2022-11-17T17:01:27.700Z,8.29
2022-11-17T17:04:08.205Z,8.30
2022-11-17T17:06:37.138Z,8.24
2022-11-17T17:09:08.300Z,8.23
2022-11-17T17:11:38.956Z,8.07
2022-11-17T17:14:08.947Z,8.02
2022-11-17T17:16:36.998Z,7.88
2022-11-17T17:19:05.869Z,7.97
2022-11-17T17:21:33.339Z,7.95
2022-11-17T17:24:00.221Z,7.85
2022-11-17T17:26:28.904Z,7.80
2022-11-17T17:28:57.121Z,7.77
2022-11-17T17:31:25.078Z,7.79
2022-11-17T17:33:54.334Z,7.88
2022-11-17T17:36:23.257Z,7.93
2022-11-17T17:38:55.538Z,7.83
2022-11-17T17:41:25.268Z,7.90
2022-11-17T17:44:06.540Z,7.85
2022-11-17T17:46:38.458Z,7.89
2022-11-17T17:49:05.980Z,7.90
2022-11-17T17:51:36.986Z,7.88
2022-11-17T17:54:03.483Z,7.88
2022-11-17T17:56:32.607Z,7.91
2022-11-17T17:58:59.162Z,7.99
2022-11-17T18:01:29.342Z,7.96
2022-11-17T18:04:02.527Z,8.01
2022-11-17T18:06:28.891Z,8.01
2022-11-17T18:08:56.317Z,7.99
2022-11-17T18:11:24.353Z,8.01
2022-11-17T18:13:52.630Z,7.95
2022-11-17T18:16:27.089Z,7.87
2022-11-17T18:19:01.977Z,7.97
2022-11-17T18:21:28.721Z,7.95
2022-11-17T18:23:56.129Z,7.99
2022-11-17T18:26:24.742Z,7.92
2022-11-17T18:29:02.999Z,7.97
2022-11-17T18:31:31.994Z,8.03
2022-11-17T18:34:01.335Z,8.04
2022-11-17T18:36:29.068Z,7.98
2022-11-17T18:38:57.888Z,7.95
2022-11-17T18:41:25.836Z,8.06
2022-11-17T18:43:52.495Z,7.94
2022-11-17T18:46:21.642Z,8.02
2022-11-17T18:48:51.599Z,7.98
2022-11-17T18:51:21.249Z,7.89
2022-11-17T18:53:49.562Z,7.86
2022-11-17T18:56:18.653Z,7.83
2022-11-17T18:58:45.495Z,7.78
2022-11-17T19:01:14.796Z,7.79
2022-11-17T19:03:42.874Z,7.84
2022-11-17T19:06:10.343Z,7.87
2022-11-17T19:08:37.133Z,7.75
2022-11-17T19:11:06.434Z,7.73
2022-11-17T19:13:35.453Z,7.74
2022-11-17T19:16:06.168Z,7.67
2022-11-17T19:18:33.058Z,7.67
2022-11-17T19:21:13.561Z,7.72
2022-11-17T19:23:43.449Z,7.59
2022-11-17T19:26:14.664Z,7.68
2022-11-17T19:28:41.519Z,7.66
2022-11-17T19:31:13.923Z,7.72
2022-11-17T19:33:41.460Z,7.67
2022-11-17T19:36:19.586Z,7.62
2022-11-17T19:38:50.474Z,7.58
2022-11-17T19:41:22.682Z,7.57
2022-11-17T19:43:52.593Z,7.39
2022-11-17T19:46:18.996Z,7.72
2022-11-17T19:48:45.703Z,7.65
2022-11-17T19:51:23.619Z,7.53
2022-11-17T19:53:54.664Z,7.62
2022-11-17T19:56:21.734Z,7.55
2022-11-17T19:58:49.739Z,7.46
2022-11-17T20:01:42.381Z,7.39
2022-11-17T20:04:09.113Z,7.35
2022-11-17T20:06:37.868Z,7.33
2022-11-17T20:09:09.570Z,7.39
2022-11-17T20:11:36.491Z,7.33
2022-11-17T20:14:03.400Z,7.31
2022-11-17T20:16:32.945Z,7.31
2022-11-17T20:19:01.444Z,7.25
2022-11-17T20:21:29.276Z,7.24
2022-11-17T20:23:56.304Z,7.10
2022-11-17T20:26:24.776Z,7.17
2022-11-17T20:28:52.511Z,7.01
2022-11-17T20:31:24.631Z,7.10
2022-11-17T20:33:52.177Z,6.96
2022-11-17T20:36:20.508Z,7.01
2022-11-17T20:38:54.142Z,6.82
2022-11-17T20:41:21.374Z,6.67
2022-11-17T20:43:52.435Z,6.66
2022-11-17T20:46:20.136Z,6.68
2022-11-17T20:48:46.809Z,6.62
2022-11-17T20:51:18.724Z,6.73
2022-11-17T20:53:45.428Z,6.65
2022-11-17T20:56:13.663Z,6.82
2022-11-17T20:58:40.194Z,6.75
2022-11-17T21:01:24.651Z,6.70
2022-11-17T21:03:51.309Z,6.65
2022-11-17T21:06:18.995Z,6.78
2022-11-17T21:08:46.370Z,6.50
2022-11-17T21:11:34.382Z,6.65
2022-11-17T21:14:00.823Z,6.57
2022-11-17T21:16:27.286Z,6.60
2022-11-17T21:18:53.819Z,6.68
2022-11-17T21:21:20.319Z,6.61
2022-11-17T21:23:46.723Z,6.61
2022-11-17T21:26:18.417Z,6.60
2022-11-17T21:28:45.535Z,6.59
2022-11-17T21:31:15.095Z,6.66
2022-11-17T21:33:42.542Z,6.63
2022-11-17T21:36:14.440Z,6.55
2022-11-17T21:38:41.716Z,6.58
2022-11-17T21:41:11.635Z,6.59
2022-11-17T21:43:39.696Z,6.69
2022-11-17T21:46:09.089Z,6.60
2022-11-17T21:48:37.126Z,6.62
2022-11-17T21:51:05.073Z,6.47
2022-11-17T21:53:32.020Z,6.50
2022-11-17T21:56:05.924Z,6.53
2022-11-17T21:58:33.710Z,6.45
2022-11-17T22:01:08.337Z,6.55
2022-11-17T22:03:34.829Z,6.44
2022-11-17T22:06:12.035Z,6.37
2022-11-17T22:08:40.095Z,6.08
2022-11-17T22:11:11.924Z,6.04
2022-11-17T22:13:39.255Z,5.87
2022-11-17T22:16:14.002Z,5.76
2022-11-17T22:18:41.338Z,5.70
2022-11-17T22:21:08.557Z,5.64
2022-11-17T22:23:35.419Z,5.60
2022-11-17T22:26:05.053Z,5.64
2022-11-17T22:28:31.480Z,5.61
2022-11-17T22:30:58.045Z,5.65
2022-11-17T22:33:25.134Z,5.49
2022-11-17T22:35:51.706Z,5.49
2022-11-17T22:38:18.255Z,5.39
2022-11-17T22:40:45.126Z,5.40
2022-11-17T22:43:14.825Z,5.34
2022-11-17T22:45:41.998Z,5.39
2022-11-17T22:48:09.108Z,5.48
2022-11-17T22:50:36.305Z,5.51
2022-11-17T22:53:03.277Z,5.56
2022-11-17T22:55:29.771Z,5.61
2022-11-17T22:57:56.201Z,5.62
2022-11-17T23:00:22.925Z,5.89
2022-11-17T23:02:49.474Z,5.73
2022-11-17T23:05:16.593Z,5.74
2022-11-17T23:07:43.263Z,5.77
2022-11-17T23:10:10.651Z,5.83
2022-11-17T23:12:37.155Z,5.93
2022-11-17T23:15:03.986Z,5.54
2022-11-17T23:17:30.390Z,5.59
2022-11-17T23:19:56.829Z,5.67
2022-11-17T23:22:23.214Z,5.72
2022-11-17T23:24:49.632Z,5.69
2022-11-17T23:27:16.041Z,5.70
2022-11-17T23:29:42.494Z,5.66
2022-11-17T23:32:09.481Z,5.73
2022-11-17T23:34:36.349Z,5.81
2022-11-17T23:37:04.095Z,5.87
2022-11-17T23:39:30.698Z,5.96
2022-11-17T23:41:57.182Z,5.91
2022-11-17T23:44:23.571Z,5.93
2022-11-17T23:46:49.968Z,5.97
2022-11-17T23:49:16.827Z,6.11
2022-11-17T23:51:43.387Z,5.95
2022-11-17T23:54:13.269Z,6.07
2022-11-17T23:56:40.322Z,6.12
2022-11-17T23:59:08.179Z,6.23
